Truro, United Kingdom
Current Conditions -  °F | °C
As of 8:20 PM on Wednesday 28 Jan 2015 (Local Time) from EGHQ Reporting Station
Light Rain Light Rain  
Wind Chill: 29°   Ceiling: Unl
Heat Index: 39°   Visibility: 6mi
Dew Point: 36°   Wind: 22mph
Humidity: 87%   Direction: 290°WNW
Pressure: 29.74"   Gusts: NA
Location:  50.27°N, 5.05°W
Report Text: EGHQ 282020Z 29019KT 9999 -RADZ FEW018 04/02 Q1007
Loading
Personal Weather Stations






























Interactive Weather Map New forecast layout! Learn more

10-Day Weather Forecast

Advertisements
Track Severe Weather on mobile